Esneux, Belgium
Current Conditions -  °F | °C
As of 9:50 PM on Tuesday 21 Oct 2014 (Local Time) from EBLG Reporting Station
Broken Clouds Broken Clouds  
Wind Chill:   Ceiling: 4800
Heat Index:   Visibility: 6mi
Dew Point:   Wind: 17mph
Humidity: 81%   Direction: 260°W
Pressure: 29.83"   Gusts: NA
Location:  50.54°N, 5.57°E
Report Text: EBLG 211950Z 26015KT 9999 FEW030 BKN048 07/04 Q1010 TEMPO 4000 SHRA SCT010 BKN015CB
Loading
Personal Weather Stations






























Interactive Weather Map
Tropical Storm Tracking
New forecast layout! Learn more

10-Day Weather Forecast

Advertisements
Track Severe Weather on mobile